createdAt,value
2022-12-15T00:00:25.185Z,77.97
2022-12-15T00:01:23.060Z,77.98
2022-12-15T00:02:23.089Z,77.99
2022-12-15T00:03:23.126Z,78.01
2022-12-15T00:04:23.486Z,78
2022-12-15T00:05:23.297Z,77.96
2022-12-15T00:06:22.702Z,78
2022-12-15T00:07:23.039Z,78.05
2022-12-15T00:08:21.928Z,78.01
2022-12-15T00:09:29.375Z,77.89
2022-12-15T00:10:23.625Z,77.89
2022-12-15T00:11:23.262Z,77.83
2022-12-15T00:12:22.549Z,77.78
2022-12-15T00:13:44.519Z,77.76
2022-12-15T00:14:22.938Z,77.75
2022-12-15T00:15:23.547Z,77.80
2022-12-15T00:16:22.182Z,77.77
2022-12-15T00:17:22.627Z,77.71
2022-12-15T00:18:23.017Z,77.72
2022-12-15T00:19:22.512Z,77.76
2022-12-15T00:20:22.950Z,77.80
2022-12-15T00:21:23.544Z,77.81
2022-12-15T00:22:23.610Z,77.77
2022-12-15T00:23:22.827Z,77.77
2022-12-15T00:24:23.430Z,77.69
2022-12-15T00:25:22.912Z,77.67
2022-12-15T00:26:23.431Z,77.75
2022-12-15T00:27:22.490Z,77.71
2022-12-15T00:28:22.436Z,77.61
2022-12-15T00:29:23.177Z,77.57
2022-12-15T00:30:22.808Z,77.55
2022-12-15T00:31:23.822Z,77.51
2022-12-15T00:32:23.099Z,77.45
2022-12-15T00:33:22.304Z,77.44
2022-12-15T00:34:21.643Z,77.39
2022-12-15T00:35:22.285Z,77.44
2022-12-15T00:36:22.637Z,77.42
2022-12-15T00:37:23.160Z,77.37
2022-12-15T00:38:22.562Z,77.41
2022-12-15T00:39:22.235Z,77.44
2022-12-15T00:40:22.950Z,77.48
2022-12-15T00:41:23.448Z,77.47
2022-12-15T00:42:21.732Z,77.44
2022-12-15T00:43:22.898Z,77.46
2022-12-15T00:44:28.726Z,77.33
2022-12-15T00:45:23.231Z,77.33
2022-12-15T00:46:22.606Z,77.19
2022-12-15T00:47:23.007Z,77.19
2022-12-15T00:48:21.875Z,77.22
2022-12-15T00:49:23.466Z,77.21
2022-12-15T00:50:23.400Z,77.23
2022-12-15T00:51:22.545Z,77.22
2022-12-15T00:52:22.760Z,77.19
2022-12-15T00:53:23.182Z,77.25
2022-12-15T00:55:23.035Z,77.30
2022-12-15T00:56:21.904Z,77.36
2022-12-15T00:57:23.897Z,77.34
2022-12-15T00:58:23.760Z,77.32
2022-12-15T00:59:23.238Z,77.23
2022-12-15T01:00:22.671Z,77.16
2022-12-15T01:01:26.095Z,77.07
2022-12-15T01:02:23.360Z,77.07
2022-12-15T01:03:22.824Z,77.08
2022-12-15T01:04:23.813Z,77.14
2022-12-15T01:05:23.371Z,77.12
2022-12-15T01:06:22.741Z,77.04
2022-12-15T01:07:22.708Z,77.01
2022-12-15T01:08:22.884Z,76.95
2022-12-15T01:09:23.469Z,76.95
2022-12-15T01:10:22.825Z,76.99
2022-12-15T01:11:23.535Z,76.99
2022-12-15T01:12:22.397Z,76.96
2022-12-15T01:13:22.421Z,76.93
2022-12-15T01:14:22.770Z,76.93
2022-12-15T01:15:24.073Z,76.95
2022-12-15T01:16:21.511Z,76.96
2022-12-15T01:17:22.709Z,76.93
2022-12-15T01:18:23.044Z,76.89
2022-12-15T01:19:22.542Z,76.87
2022-12-15T01:20:23.289Z,76.94
2022-12-15T01:21:25.009Z,76.91
2022-12-15T01:22:22.410Z,76.89
2022-12-15T01:23:22.227Z,76.91
2022-12-15T01:24:22.902Z,76.90
2022-12-15T01:25:23.069Z,76.88
2022-12-15T01:26:21.704Z,76.86
2022-12-15T01:27:22.730Z,76.76
2022-12-15T01:28:23.103Z,76.74
2022-12-15T01:29:22.256Z,76.77
2022-12-15T01:30:22.888Z,76.76
2022-12-15T01:31:23.389Z,76.79
2022-12-15T01:32:22.559Z,76.86
2022-12-15T01:33:22.766Z,76.85
2022-12-15T01:34:23.529Z,76.79
2022-12-15T01:35:23.235Z,76.65
2022-12-15T01:36:22.406Z,76.63
2022-12-15T01:37:23.321Z,76.62
2022-12-15T01:38:22.688Z,76.59
2022-12-15T01:39:23.670Z,76.55
2022-12-15T01:40:23.295Z,76.48
2022-12-15T01:41:22.707Z,76.42
2022-12-15T01:42:23.301Z,76.38
2022-12-15T01:43:23.323Z,76.39
2022-12-15T01:44:22.797Z,76.40
2022-12-15T01:45:24.102Z,76.44
2022-12-15T01:46:22.283Z,76.50
2022-12-15T01:47:22.849Z,76.47
2022-12-15T01:48:23.303Z,76.48
2022-12-15T01:49:22.703Z,76.48
2022-12-15T01:50:23.821Z,76.40
2022-12-15T01:51:22.527Z,76.40
2022-12-15T01:52:22.245Z,76.39
2022-12-15T01:53:22.696Z,76.37
2022-12-15T01:54:23.338Z,76.38
2022-12-15T01:55:22.422Z,76.33
2022-12-15T01:56:23.598Z,76.31
2022-12-15T01:57:23.047Z,76.33
2022-12-15T01:58:21.831Z,76.30
2022-12-15T01:59:22.116Z,76.28
2022-12-15T02:00:37.455Z,76.45
2022-12-15T02:01:24.017Z,76.45
2022-12-15T02:02:22.910Z,76.46
2022-12-15T02:03:23.052Z,76.51
2022-12-15T02:04:23.323Z,76.43
2022-12-15T02:05:23.842Z,76.35
2022-12-15T02:06:23.345Z,76.46
2022-12-15T02:07:22.865Z,76.52
2022-12-15T02:08:22.881Z,76.49
2022-12-15T02:09:23.486Z,76.49
2022-12-15T02:10:22.705Z,76.44
2022-12-15T02:11:23.349Z,76.44
2022-12-15T02:12:22.347Z,76.44
2022-12-15T02:13:22.925Z,76.33
2022-12-15T02:14:22.911Z,76.22
2022-12-15T02:15:22.890Z,76.15
2022-12-15T02:16:23.274Z,76.13
2022-12-15T02:17:22.007Z,76.20
2022-12-15T02:18:21.681Z,76.25
2022-12-15T02:19:22.628Z,76.23
2022-12-15T02:20:23.032Z,76.16
2022-12-15T02:21:22.390Z,76.22
2022-12-15T02:22:22.153Z,76.25
2022-12-15T02:23:22.048Z,76.17
2022-12-15T02:24:22.378Z,76.16
2022-12-15T02:25:22.638Z,76.14
2022-12-15T02:26:23.232Z,76.20
2022-12-15T02:27:23.147Z,76.24
2022-12-15T02:28:22.116Z,76.20
2022-12-15T02:29:23.161Z,76.20
2022-12-15T02:30:22.841Z,76.26
2022-12-15T02:31:23.114Z,76.34
2022-12-15T02:32:22.644Z,76.42
2022-12-15T02:33:22.791Z,76.47
2022-12-15T02:34:22.900Z,76.43
2022-12-15T02:35:23.833Z,76.32
2022-12-15T02:36:23.192Z,76.35
2022-12-15T02:37:23.589Z,76.39
2022-12-15T02:38:22.959Z,76.29
2022-12-15T02:39:23.539Z,76.23
2022-12-15T02:40:22.956Z,76.31
2022-12-15T02:41:23.429Z,76.34
2022-12-15T02:42:22.478Z,76.43
2022-12-15T02:43:22.385Z,76.48
2022-12-15T02:44:22.863Z,76.50
2022-12-15T02:45:23.776Z,76.50
2022-12-15T02:47:23.673Z,76.49
2022-12-15T02:48:23.029Z,76.43
2022-12-15T02:49:22.618Z,76.38
2022-12-15T02:50:22.304Z,76.40
2022-12-15T02:51:22.736Z,76.45
2022-12-15T02:52:22.700Z,76.51
2022-12-15T02:53:22.624Z,76.45
2022-12-15T02:54:23.479Z,76.38
2022-12-15T02:55:22.821Z,76.38
2022-12-15T02:56:23.256Z,76.37
2022-12-15T02:57:22.491Z,76.34
2022-12-15T02:58:22.372Z,76.31
2022-12-15T02:59:22.228Z,76.28
2022-12-15T03:00:52.312Z,76.13
2022-12-15T03:01:23.747Z,76.13
2022-12-15T03:02:24.312Z,76.10
2022-12-15T03:03:22.726Z,76.07
2022-12-15T03:04:24.240Z,76.07
2022-12-15T03:05:22.603Z,76.09
2022-12-15T03:06:23.507Z,76.12
2022-12-15T03:07:22.418Z,76.21
2022-12-15T03:08:21.981Z,76.23
2022-12-15T03:09:21.800Z,76.23
2022-12-15T03:10:22.982Z,76.19
2022-12-15T03:11:21.735Z,76.18
2022-12-15T03:12:23.336Z,76.20
2022-12-15T03:13:22.373Z,76.19
2022-12-15T03:14:22.873Z,76.05
2022-12-15T03:15:23.759Z,75.95
2022-12-15T03:16:22.373Z,75.92
2022-12-15T03:17:23.041Z,75.98
2022-12-15T03:18:22.401Z,76.03
2022-12-15T03:19:22.469Z,76.04
2022-12-15T03:20:23.125Z,76.07
2022-12-15T03:21:23.517Z,76.08
2022-12-15T03:22:22.928Z,76.07
2022-12-15T03:23:24.016Z,76.02
2022-12-15T03:24:23.322Z,76
2022-12-15T03:25:22.975Z,75.93
2022-12-15T03:26:23.619Z,75.99
2022-12-15T03:27:23.234Z,76.07
2022-12-15T03:28:22.401Z,76.06
2022-12-15T03:29:23.013Z,76.07
2022-12-15T03:30:23.002Z,76.09
2022-12-15T03:31:22.446Z,76.15
2022-12-15T03:32:23.486Z,76.26
2022-12-15T03:33:23.228Z,76.27
2022-12-15T03:34:22.344Z,76.27
2022-12-15T03:35:22.110Z,76.34
2022-12-15T03:36:22.600Z,76.34
2022-12-15T03:37:22.379Z,76.29
2022-12-15T03:38:23.188Z,76.27
2022-12-15T03:39:22.919Z,76.24
2022-12-15T03:40:23.364Z,76.17
2022-12-15T03:41:22.819Z,76.16
2022-12-15T03:42:23.252Z,76.13
2022-12-15T03:43:22.775Z,76.10
2022-12-15T03:44:23.395Z,76.17
2022-12-15T03:45:22.781Z,76.23
2022-12-15T03:46:23.768Z,76.27
2022-12-15T03:47:22.918Z,76.25
2022-12-15T03:48:23.367Z,76.20
2022-12-15T03:49:22.901Z,76.24
2022-12-15T03:50:23.533Z,76.17
2022-12-15T03:51:23.038Z,76.22
2022-12-15T03:52:22.539Z,76.24
2022-12-15T03:53:23.512Z,76.20
2022-12-15T03:54:22.803Z,76.23
2022-12-15T03:55:23.268Z,76.22
2022-12-15T03:56:22.881Z,76.20
2022-12-15T03:57:23.386Z,76.13
2022-12-15T03:58:22.361Z,76.05
2022-12-15T03:59:22.679Z,76.04
2022-12-15T04:00:23.613Z,75.99
2022-12-15T04:01:23.243Z,75.96
2022-12-15T04:02:23.941Z,75.97
2022-12-15T04:03:23.026Z,75.98
2022-12-15T04:04:23.218Z,76.05
2022-12-15T04:05:23.073Z,76.04
2022-12-15T04:06:22.493Z,75.97
2022-12-15T04:07:22.829Z,75.95
2022-12-15T04:08:23.821Z,76.02
2022-12-15T04:09:23.209Z,76.08
2022-12-15T04:10:22.860Z,76.04
2022-12-15T04:11:23.483Z,75.99
2022-12-15T04:12:23.416Z,75.91
2022-12-15T04:13:23.166Z,75.80
2022-12-15T04:14:22.951Z,75.77
2022-12-15T04:15:23.749Z,75.85
2022-12-15T04:16:28.684Z,75.94
2022-12-15T04:17:24.153Z,75.94
2022-12-15T04:18:22.720Z,75.91
2022-12-15T04:19:37.391Z,75.91
2022-12-15T04:20:23.502Z,75.91
2022-12-15T04:21:28.340Z,75.84
2022-12-15T04:23:23.123Z,75.82
2022-12-15T04:24:22.743Z,75.89
2022-12-15T04:25:22.995Z,75.89
2022-12-15T04:26:21.798Z,75.92
2022-12-15T04:27:23.184Z,75.93
2022-12-15T04:28:22.720Z,75.92
2022-12-15T04:29:23.136Z,75.94
2022-12-15T04:30:23.021Z,75.91
2022-12-15T04:31:22.719Z,75.88
2022-12-15T04:32:23.579Z,75.94
2022-12-15T04:33:26.395Z,75.92
2022-12-15T04:34:22.984Z,75.94
2022-12-15T04:35:22.622Z,75.97
2022-12-15T04:36:23.396Z,75.93
2022-12-15T04:37:42.132Z,75.89
2022-12-15T04:38:22.391Z,75.89
2022-12-15T04:39:22.589Z,75.96
2022-12-15T04:40:23.212Z,75.95
2022-12-15T04:41:22.340Z,75.89
2022-12-15T04:42:23.293Z,75.87
2022-12-15T04:43:22.865Z,75.98
2022-12-15T04:44:23.689Z,76.02
2022-12-15T04:45:29.055Z,76.05
2022-12-15T04:46:23.325Z,76.05
2022-12-15T04:47:23.753Z,76.08
2022-12-15T04:48:23.329Z,76.08
2022-12-15T04:49:22.892Z,76.07
2022-12-15T04:50:23.386Z,76.11
2022-12-15T04:51:23.844Z,76.12
2022-12-15T04:52:21.901Z,76.11
2022-12-15T04:53:23.431Z,76.14
2022-12-15T04:54:22.689Z,76.13
2022-12-15T04:55:23.274Z,76.16
2022-12-15T04:57:22.671Z,76.09
2022-12-15T04:58:22.985Z,76.09
2022-12-15T04:59:21.810Z,76.09
2022-12-15T05:00:24.162Z,76.03
2022-12-15T05:01:23.919Z,76.01
2022-12-15T05:02:23.441Z,76.05
2022-12-15T05:03:38.484Z,76.00
2022-12-15T05:04:23.605Z,76.00
2022-12-15T05:05:23.276Z,75.93
2022-12-15T05:06:22.866Z,75.94
2022-12-15T05:07:23.346Z,76.02
2022-12-15T05:08:22.844Z,76.09
2022-12-15T05:09:23.087Z,76.04
2022-12-15T05:10:24.192Z,75.97
2022-12-15T05:11:22.672Z,75.93
2022-12-15T05:12:23.115Z,75.94
2022-12-15T05:13:23.293Z,75.93
2022-12-15T05:14:23.224Z,75.88
2022-12-15T05:15:23.392Z,75.89
2022-12-15T05:16:22.926Z,75.91
2022-12-15T05:17:21.932Z,75.83
2022-12-15T05:18:22.695Z,75.74
2022-12-15T05:19:23.607Z,75.74
2022-12-15T05:20:23.009Z,75.68
2022-12-15T05:21:23.049Z,75.68
2022-12-15T05:22:22.464Z,75.75
2022-12-15T05:23:23.093Z,75.65
2022-12-15T05:24:23.033Z,75.54
2022-12-15T05:25:55.412Z,75.51
2022-12-15T05:26:23.585Z,75.51
2022-12-15T05:27:23.851Z,75.61
2022-12-15T05:28:23.306Z,75.53
2022-12-15T05:29:23.188Z,75.47
2022-12-15T05:30:22.939Z,75.52
2022-12-15T05:31:23.732Z,75.58
2022-12-15T05:32:23.329Z,75.55
2022-12-15T05:33:22.849Z,75.54
2022-12-15T05:34:23.441Z,75.52
2022-12-15T05:35:22.782Z,75.49
2022-12-15T05:36:23.377Z,75.52
2022-12-15T05:37:23.485Z,75.58
2022-12-15T05:38:23.244Z,75.56
2022-12-15T05:39:22.946Z,75.51
2022-12-15T05:40:23.395Z,75.51
2022-12-15T05:41:23.004Z,75.47
2022-12-15T05:42:22.364Z,75.46
2022-12-15T05:43:26.328Z,75.50
2022-12-15T05:44:22.871Z,75.54
2022-12-15T05:45:23.564Z,75.57
2022-12-15T05:46:23.107Z,75.51
2022-12-15T05:47:22.305Z,75.49
2022-12-15T05:48:22.930Z,75.49
2022-12-15T05:49:23.236Z,75.43
2022-12-15T05:50:23.421Z,75.41
2022-12-15T05:51:21.974Z,75.41
2022-12-15T05:52:23.454Z,75.45
2022-12-15T05:53:23.407Z,75.44
2022-12-15T05:54:23.671Z,75.43
2022-12-15T05:55:24.117Z,75.40
2022-12-15T05:56:22.337Z,75.29
2022-12-15T05:57:23.053Z,75.31
2022-12-15T05:58:22.621Z,75.33
2022-12-15T05:59:23.293Z,75.32
2022-12-15T06:00:24.454Z,75.32
2022-12-15T06:01:23.414Z,75.31
2022-12-15T06:02:23.302Z,75.38
2022-12-15T06:03:23.384Z,75.40
2022-12-15T06:04:23.809Z,75.41
2022-12-15T06:05:23.513Z,75.40
2022-12-15T06:06:23.472Z,75.36
2022-12-15T06:07:22.592Z,75.35
2022-12-15T06:08:23.147Z,75.36
2022-12-15T06:09:21.901Z,75.33
2022-12-15T06:10:22.737Z,75.29
2022-12-15T06:11:22.837Z,75.28
2022-12-15T06:12:23.034Z,75.28
2022-12-15T06:13:22.466Z,75.32
2022-12-15T06:14:23.067Z,75.36
2022-12-15T06:15:22.891Z,75.41
2022-12-15T06:16:24.129Z,75.41
2022-12-15T06:17:23.776Z,75.33
2022-12-15T06:18:23.873Z,75.31
2022-12-15T06:19:26.127Z,75.23
2022-12-15T06:20:22.431Z,75.23
2022-12-15T06:21:23.504Z,75.20
2022-12-15T06:23:22.717Z,75.29
2022-12-15T06:24:28.660Z,75.30
2022-12-15T06:25:23.859Z,75.30
2022-12-15T06:26:23.675Z,75.35
2022-12-15T06:27:23.411Z,75.39
2022-12-15T06:28:23.151Z,75.37
2022-12-15T06:29:22.404Z,75.40
2022-12-15T06:30:23.469Z,75.44
2022-12-15T06:31:22.841Z,75.41
2022-12-15T06:32:22.979Z,75.32
2022-12-15T06:33:23.418Z,75.26
2022-12-15T06:34:23.427Z,75.30
2022-12-15T06:35:23.575Z,75.35
2022-12-15T06:36:22.068Z,75.38
2022-12-15T06:37:22.029Z,75.44
2022-12-15T06:38:30.406Z,75.55
2022-12-15T06:39:22.822Z,75.55
2022-12-15T06:40:23.968Z,75.44
2022-12-15T06:41:23.031Z,75.34
2022-12-15T06:42:22.204Z,75.36
2022-12-15T06:43:23.215Z,75.30
2022-12-15T06:44:22.683Z,75.19
2022-12-15T06:45:23.499Z,75.13
2022-12-15T06:46:22.670Z,75.17
2022-12-15T06:47:23.118Z,75.28
2022-12-15T06:48:22.677Z,75.36
2022-12-15T06:49:23.347Z,75.43
2022-12-15T06:50:23.347Z,75.42
2022-12-15T06:51:25.831Z,75.20
2022-12-15T06:52:23.944Z,75.20
2022-12-15T06:53:23.819Z,75.15
2022-12-15T06:54:23.910Z,75.13
2022-12-15T06:55:24.060Z,75.10
2022-12-15T06:56:25.849Z,75.15
2022-12-15T06:57:23.372Z,75.25
2022-12-15T06:58:42.017Z,75.27
2022-12-15T06:59:22.513Z,75.27
2022-12-15T07:00:43.180Z,75.27
2022-12-15T07:01:24.419Z,75.27
2022-12-15T07:02:36.902Z,75.40
2022-12-15T07:03:22.698Z,75.46
2022-12-15T07:04:24.271Z,75.44
2022-12-15T07:05:23.490Z,75.41
2022-12-15T07:06:22.809Z,75.45
2022-12-15T07:07:23.518Z,75.51
2022-12-15T07:08:27.096Z,75.50
2022-12-15T07:09:22.754Z,75.53
2022-12-15T07:10:23.597Z,75.60
2022-12-15T07:11:22.811Z,75.62
2022-12-15T07:12:23.209Z,75.62
2022-12-15T07:13:22.913Z,75.68
2022-12-15T07:14:23.998Z,75.66
2022-12-15T07:15:23.059Z,75.62
2022-12-15T07:16:23.027Z,75.61
2022-12-15T07:17:23.806Z,75.62
2022-12-15T07:18:23.617Z,75.57
2022-12-15T07:19:23.732Z,75.62
2022-12-15T07:20:28.641Z,75.73
2022-12-15T07:21:23.822Z,75.73
2022-12-15T07:22:23.699Z,75.69
2022-12-15T07:23:46.031Z,75.60
2022-12-15T07:24:22.929Z,75.55
2022-12-15T07:25:23.091Z,75.58
2022-12-15T07:26:23.140Z,75.52
2022-12-15T07:27:22.543Z,75.45
2022-12-15T07:28:25.916Z,75.42
2022-12-15T07:29:30.949Z,75.42
2022-12-15T07:30:24.097Z,75.42
2022-12-15T07:31:22.984Z,75.47
2022-12-15T07:32:22.583Z,75.52
2022-12-15T07:33:23.104Z,75.53
2022-12-15T07:34:23.470Z,75.52
2022-12-15T07:35:23.661Z,75.44
2022-12-15T07:36:23.361Z,75.42
2022-12-15T07:37:23.487Z,75.48
2022-12-15T07:38:22.625Z,75.53
2022-12-15T07:39:23.691Z,75.51
2022-12-15T07:40:23.949Z,75.45
2022-12-15T07:41:23.412Z,75.49
2022-12-15T07:42:23.372Z,75.55
2022-12-15T07:43:23.132Z,75.58
2022-12-15T07:44:23.597Z,75.57
2022-12-15T07:45:24.077Z,75.65
2022-12-15T07:46:23.964Z,75.77
2022-12-15T07:47:23.639Z,75.89
2022-12-15T07:48:23.422Z,75.88
2022-12-15T07:49:23.252Z,75.89
2022-12-15T07:50:23.639Z,75.95
2022-12-15T07:51:28.318Z,75.97
2022-12-15T07:52:23.293Z,75.97
2022-12-15T07:53:23.130Z,76.06
2022-12-15T07:54:23.101Z,76.04
2022-12-15T07:55:50.071Z,76.06
2022-12-15T07:56:22.303Z,76.08
2022-12-15T07:57:22.229Z,76.02
2022-12-15T07:58:22.890Z,75.97
2022-12-15T07:59:23.614Z,75.92
2022-12-15T08:00:24.688Z,75.91
2022-12-15T08:01:24.500Z,76.04
2022-12-15T08:02:24.477Z,76.15
2022-12-15T08:03:23.730Z,76.08
2022-12-15T08:04:24.169Z,76.08
2022-12-15T08:05:23.092Z,76.06
2022-12-15T08:06:22.772Z,76.07
2022-12-15T08:07:23.271Z,76.18
2022-12-15T08:08:24.540Z,76.30
2022-12-15T08:09:23.364Z,76.37
2022-12-15T08:10:23.206Z,76.44
2022-12-15T08:11:23.823Z,76.49
2022-12-15T08:12:23.233Z,76.50
2022-12-15T08:14:18.771Z,76.59
2022-12-15T08:14:29.563Z,76.68
2022-12-15T08:15:23.257Z,76.68
2022-12-15T08:16:23.690Z,76.68
2022-12-15T08:17:24.116Z,76.61
2022-12-15T08:18:23.195Z,76.61
2022-12-15T08:19:23.533Z,76.76
2022-12-15T08:20:23.838Z,76.92
2022-12-15T08:21:24.265Z,77.02
2022-12-15T08:22:23.197Z,77.05
2022-12-15T08:23:22.624Z,77.07
2022-12-15T08:24:23.616Z,77.07
2022-12-15T08:25:24.009Z,77.14
2022-12-15T08:26:28.416Z,77.22
2022-12-15T08:27:23.212Z,77.28
2022-12-15T08:28:22.733Z,77.31
2022-12-15T08:29:59.102Z,77.28
2022-12-15T08:30:22.721Z,77.28
2022-12-15T08:31:24.427Z,77.26
2022-12-15T08:32:23.017Z,77.38
2022-12-15T08:33:23.625Z,77.54
2022-12-15T08:34:23.823Z,77.59
2022-12-15T08:36:05.505Z,77.71
2022-12-15T08:36:24.379Z,77.71
2022-12-15T08:37:24.396Z,77.83
2022-12-15T08:38:23.685Z,77.91
2022-12-15T08:39:23.812Z,77.90
2022-12-15T08:40:22.604Z,77.84
2022-12-15T08:41:23.827Z,77.75
2022-12-15T08:42:23.487Z,77.75
2022-12-15T08:43:24.438Z,77.89
2022-12-15T08:44:24.494Z,78.05
2022-12-15T08:45:23.891Z,78.12
2022-12-15T08:46:23.894Z,78.20
2022-12-15T08:47:24.014Z,78.26
2022-12-15T08:48:23.008Z,78.29
2022-12-15T08:49:31.062Z,78.06
2022-12-15T08:50:23.152Z,78.06
2022-12-15T08:51:27.423Z,78.14
2022-12-15T08:52:22.482Z,78.14
2022-12-15T08:53:51.450Z,78.37
2022-12-15T08:54:23.375Z,78.37
2022-12-15T08:55:31.119Z,78.39
2022-12-15T08:56:23.568Z,78.39
2022-12-15T08:57:28.683Z,78.50
2022-12-15T08:58:23.947Z,78.50
2022-12-15T08:59:24.567Z,78.54
2022-12-15T09:00:24.748Z,78.63
2022-12-15T09:01:33.105Z,78.70
2022-12-15T09:02:24.558Z,78.70
2022-12-15T09:03:32.674Z,78.87
2022-12-15T09:04:24.671Z,78.87
2022-12-15T09:05:23.899Z,78.89
2022-12-15T09:06:24.143Z,78.96
2022-12-15T09:07:22.967Z,78.97
2022-12-15T09:08:23.490Z,78.99
2022-12-15T09:09:24.126Z,78.96
2022-12-15T09:10:23.854Z,78.98
2022-12-15T09:11:29.636Z,79.29
2022-12-15T09:12:24.134Z,79.39
2022-12-15T09:13:39.267Z,79.34
2022-12-15T09:14:29.478Z,79.34
2022-12-15T09:15:45.328Z,79.48
2022-12-15T09:16:23.686Z,79.61
2022-12-15T09:17:24.315Z,79.80
2022-12-15T09:18:23.019Z,79.88
2022-12-15T09:19:28.034Z,79.86
2022-12-15T09:21:21.665Z,79.95
2022-12-15T09:36:21.076Z,78.85
2022-12-15T09:37:20.845Z,78.87
2022-12-15T09:38:21.952Z,78.91
2022-12-15T09:39:21.643Z,78.65
2022-12-15T09:40:21.538Z,78.56
2022-12-15T09:41:40.224Z,78.40
2022-12-15T09:42:20.484Z,78.27
2022-12-15T09:47:20.910Z,78.46
2022-12-15T09:48:21.362Z,78.01
2022-12-15T09:49:43.039Z,78.18
2022-12-15T09:50:21.517Z,78.23
2022-12-15T09:51:20.640Z,78.30
2022-12-15T09:52:21.013Z,78.25
2022-12-15T09:54:01.614Z,78.02
2022-12-15T09:54:21.291Z,78.02
2022-12-15T09:55:21.505Z,78.00
2022-12-15T09:56:20.834Z,77.95
2022-12-15T09:57:21.397Z,77.84
2022-12-15T09:58:21.049Z,77.62
2022-12-15T09:59:21.122Z,77.66
2022-12-15T10:00:22.552Z,78.01
2022-12-15T10:01:22.765Z,78.12
2022-12-15T10:02:22.306Z,78.05
2022-12-15T10:03:21.760Z,77.91
2022-12-15T10:04:22.152Z,77.76
2022-12-15T10:05:21.457Z,77.83
2022-12-15T10:07:21.527Z,77.98
2022-12-15T10:08:21.610Z,77.87
2022-12-15T10:09:21.449Z,77.73
2022-12-15T10:10:21.244Z,77.97
2022-12-15T10:11:20.398Z,77.92
2022-12-15T10:12:20.832Z,77.75
2022-12-15T10:13:20.627Z,77.57
2022-12-15T10:14:20.569Z,77.56
2022-12-15T10:15:21.276Z,77.62
2022-12-15T10:16:21.244Z,77.58
2022-12-15T10:17:20.659Z,77.64
2022-12-15T10:18:22.043Z,77.45
2022-12-15T10:19:21.732Z,77.15
2022-12-15T10:20:21.961Z,77.17
2022-12-15T10:21:21.477Z,77.46
2022-12-15T10:22:21.139Z,77.88
2022-12-15T10:23:20.832Z,78.09
2022-12-15T10:24:51.712Z,78.10
2022-12-15T10:25:29.404Z,77.93
2022-12-15T10:26:21.432Z,77.76
2022-12-15T10:27:21.461Z,77.83
2022-12-15T10:28:20.880Z,77.95
2022-12-15T10:29:21.588Z,77.88
2022-12-15T10:30:22.141Z,77.90
2022-12-15T10:31:21.081Z,77.91
2022-12-15T10:32:21.234Z,77.75
2022-12-15T10:33:21.126Z,77.58
2022-12-15T10:34:21.043Z,77.65
2022-12-15T10:35:21.360Z,77.84
2022-12-15T10:36:21.130Z,77.89
2022-12-15T10:37:21.105Z,77.97
2022-12-15T10:38:20.480Z,77.94
2022-12-15T10:39:25.570Z,77.99
2022-12-15T10:40:21.312Z,77.99
2022-12-15T10:41:20.520Z,77.94
2022-12-15T10:42:20.704Z,78.01
2022-12-15T10:43:21.457Z,77.85
2022-12-15T10:44:24.810Z,77.67
2022-12-15T10:45:21.723Z,77.49
2022-12-15T10:46:21.719Z,77.54
2022-12-15T10:47:21.506Z,77.68
2022-12-15T10:48:21.438Z,77.82
2022-12-15T10:49:20.661Z,77.90
2022-12-15T10:50:24.719Z,77.84
2022-12-15T10:51:21.110Z,77.89
2022-12-15T10:52:20.915Z,77.93
2022-12-15T10:53:21.457Z,77.94
2022-12-15T10:54:21.163Z,77.86
2022-12-15T10:55:20.492Z,77.85
2022-12-15T10:56:21.045Z,77.85
2022-12-15T10:57:20.607Z,77.93
2022-12-15T10:58:21.462Z,77.97
2022-12-15T10:59:21.434Z,77.93
2022-12-15T11:00:23.063Z,77.80
2022-12-15T11:01:21.568Z,77.72
2022-12-15T11:02:31.144Z,77.60
2022-12-15T11:03:21.167Z,77.60
2022-12-15T11:04:21.857Z,77.79
2022-12-15T11:05:21.586Z,77.86
2022-12-15T11:06:20.922Z,77.72
2022-12-15T11:07:20.944Z,77.69
2022-12-15T11:08:20.838Z,77.73
2022-12-15T11:09:20.889Z,77.82
2022-12-15T11:11:26.078Z,77.58
2022-12-15T11:12:20.688Z,77.68
2022-12-15T11:13:21.394Z,77.76
2022-12-15T11:15:20.982Z,77.74
2022-12-15T11:17:21.408Z,77.79
2022-12-15T11:18:20.921Z,77.86
2022-12-15T11:19:21.482Z,77.92
2022-12-15T11:20:22.041Z,78.01
2022-12-15T11:21:21.801Z,78.01
2022-12-15T11:22:28.440Z,78.05
2022-12-15T11:23:23.480Z,78.05
2022-12-15T11:24:23.897Z,78.05
2022-12-15T11:25:24.066Z,78.08
2022-12-15T11:26:23.297Z,78.01
2022-12-15T11:27:23.278Z,77.95
2022-12-15T11:28:23.340Z,77.94
2022-12-15T11:29:23.562Z,77.90
2022-12-15T11:30:31.768Z,78.03
2022-12-15T11:31:23.643Z,78.03
2022-12-15T11:32:30.898Z,78.07
2022-12-15T11:33:23.184Z,78.07
2022-12-15T11:34:22.733Z,78.00
2022-12-15T11:35:23.353Z,78
2022-12-15T11:36:37.055Z,78.00
2022-12-15T11:37:23.144Z,78.00
2022-12-15T11:38:23.460Z,78.04
2022-12-15T11:39:24.413Z,77.82
2022-12-15T11:40:23.103Z,77.57
2022-12-15T11:41:23.418Z,77.40
2022-12-15T11:42:24.534Z,77.37
2022-12-15T11:43:22.755Z,77.50
2022-12-15T11:44:24.374Z,77.58
2022-12-15T11:45:23.483Z,77.66
2022-12-15T11:46:23.529Z,77.59
2022-12-15T11:47:23.603Z,77.50
2022-12-15T11:48:23.596Z,77.52
2022-12-15T11:49:23.359Z,77.54
2022-12-15T11:50:23.508Z,77.54
2022-12-15T11:51:23.449Z,77.47
2022-12-15T11:52:23.609Z,77.39
2022-12-15T11:53:23.406Z,77.49
2022-12-15T11:54:23.370Z,77.66
2022-12-15T11:55:29.568Z,77.74
2022-12-15T11:56:23.079Z,77.80
2022-12-15T11:57:23.103Z,77.82
2022-12-15T11:58:22.725Z,77.93
2022-12-15T11:59:23.252Z,77.94
2022-12-15T12:00:24.091Z,77.94
2022-12-15T12:01:22.898Z,77.82
2022-12-15T12:02:23.406Z,77.80
2022-12-15T12:03:23.604Z,77.78
2022-12-15T12:04:23.928Z,77.66
2022-12-15T12:05:24.520Z,77.65
2022-12-15T12:06:23.425Z,77.72
2022-12-15T12:07:24.134Z,77.73
2022-12-15T12:08:23.277Z,77.66
2022-12-15T12:09:23.031Z,77.75
2022-12-15T12:10:23.750Z,77.83
2022-12-15T12:11:24.279Z,77.86
2022-12-15T12:12:24.171Z,77.78
2022-12-15T12:13:23.831Z,77.69
2022-12-15T12:14:24.514Z,77.68
2022-12-15T12:15:23.970Z,77.74
2022-12-15T12:16:23.859Z,77.84
2022-12-15T12:17:24.667Z,77.87
2022-12-15T12:18:23.724Z,77.86
2022-12-15T12:19:23.639Z,77.82
2022-12-15T12:20:24.371Z,77.91
2022-12-15T12:21:23.589Z,77.91
2022-12-15T12:22:23.438Z,77.98
2022-12-15T12:23:23.550Z,78.03
2022-12-15T12:24:24.894Z,78.08
2022-12-15T12:25:23.476Z,78.13
2022-12-15T12:26:23.954Z,78.07
2022-12-15T12:27:23.924Z,77.88
2022-12-15T12:28:22.849Z,77.69
2022-12-15T12:29:23.360Z,77.60
2022-12-15T12:30:23.982Z,77.58
2022-12-15T12:31:23.293Z,77.62
2022-12-15T12:32:23.158Z,77.74
2022-12-15T12:33:23.185Z,77.77
2022-12-15T12:34:22.865Z,77.78
2022-12-15T12:35:41.244Z,77.67
2022-12-15T12:36:24.112Z,77.67
2022-12-15T12:37:22.774Z,77.70
2022-12-15T12:38:23.782Z,77.73
2022-12-15T12:39:23.362Z,77.66
2022-12-15T12:40:23.633Z,77.59
2022-12-15T12:41:22.485Z,77.69
2022-12-15T12:42:23.972Z,77.83
2022-12-15T12:43:23.867Z,78.01
2022-12-15T12:44:24.929Z,78.14
2022-12-15T12:45:24.737Z,78.06
2022-12-15T12:46:24.240Z,78.02
2022-12-15T12:47:23.504Z,78.02
2022-12-15T12:48:23.795Z,78.06
2022-12-15T12:49:26.637Z,78.08
2022-12-15T12:50:23.693Z,78.03
2022-12-15T12:51:23.578Z,78.09
2022-12-15T12:52:23.473Z,78.15
2022-12-15T12:53:23.163Z,78.12
2022-12-15T12:54:22.500Z,78.04
2022-12-15T12:55:23.569Z,77.97
2022-12-15T12:56:23.542Z,78.04
2022-12-15T12:57:23.567Z,78.13
2022-12-15T12:58:23.535Z,78.04
2022-12-15T12:59:23.516Z,78.00
2022-12-15T13:00:24.614Z,77.86
2022-12-15T13:01:25.004Z,77.77
2022-12-15T13:02:23.566Z,77.71
2022-12-15T13:03:24.059Z,77.65
2022-12-15T13:04:23.435Z,77.79
2022-12-15T13:05:24.254Z,77.98
2022-12-15T13:06:23.633Z,78.02
2022-12-15T13:07:23.852Z,78.05
2022-12-15T13:08:24.012Z,78.20
2022-12-15T13:09:23.735Z,78.33
2022-12-15T13:10:24.579Z,78.42
2022-12-15T13:11:23.747Z,78.45
2022-12-15T13:13:00.444Z,78.32
2022-12-15T13:13:23.217Z,78.32
2022-12-15T13:14:32.813Z,78.26
2022-12-15T13:15:24.502Z,78.26
2022-12-15T13:16:23.985Z,78.19
2022-12-15T13:18:23.765Z,78.17
2022-12-15T13:19:23.634Z,78.08
2022-12-15T13:20:23.215Z,77.97
2022-12-15T13:21:22.918Z,77.95
2022-12-15T13:22:24.619Z,78.09